Time;durP1;ratioP1;P1;durP2;ratioP2;P2;SDS_P1;SDS_P2;PMS_P1;PMS_P2;Temp;Humidity;BMP_temperature;BMP_pressure;BME280_temperature;BME280_humidity;BME280_pressure;Samples;Min_cycle;Max_cycle;Signal;HPM_P1;HPM_P2
2021/07/30 00:03:41;;;;;;;8.65;4.15;;;;;;;14.43;59.57;99927.19;10471520;28;20363;-75
2021/07/30 00:09:02;;;;;;;5.90;4.78;;;;;;;14.28;60.16;99930.41;10470324;28;20354;-74
2021/07/30 00:14:05;;;;;;;8.20;4.40;;;;;;;14.15;60.74;99919.19;10473094;28;20406;-75
2021/07/30 00:19:08;;;;;;;8.43;4.38;;;;;;;14.08;61.14;99920.84;10479207;28;20293;-76
2021/07/30 00:24:12;;;;;;;11.95;5.22;;;;;;;14.01;61.46;99925.16;10477554;28;20232;-76
2021/07/30 00:29:15;;;;;;;9.55;5.35;;;;;;;13.93;61.87;99926.81;10477246;28;20285;-75
2021/07/30 00:34:18;;;;;;;8.60;4.78;;;;;;;13.96;62.00;99917.56;10477032;28;20422;-75
2021/07/30 00:39:22;;;;;;;8.38;5.22;;;;;;;13.91;62.23;99918.03;10476046;28;20239;-75
2021/07/30 00:44:25;;;;;;;11.02;5.57;;;;;;;13.85;62.45;99920.50;10477699;28;20224;-75
2021/07/30 00:49:28;;;;;;;11.32;6.15;;;;;;;13.81;62.76;99916.44;10476425;28;20318;-75
2021/07/30 00:54:32;;;;;;;8.60;5.30;;;;;;;13.83;62.83;99917.13;10476294;28;20248;-75
2021/07/30 00:59:35;;;;;;;8.38;5.97;;;;;;;13.79;63.00;99916.56;10475984;28;20264;-75
2021/07/30 01:04:38;;;;;;;10.50;5.53;;;;;;;13.71;63.30;99911.97;10473610;28;20248;-75
2021/07/30 01:09:42;;;;;;;9.25;5.10;;;;;;;13.74;63.26;99909.94;10476271;28;20235;-75
2021/07/30 01:14:45;;;;;;;9.80;5.28;;;;;;;13.65;63.60;99917.97;10474726;28;20572;-76
2021/07/30 01:19:48;;;;;;;13.30;5.93;;;;;;;13.62;63.86;99920.16;10473343;28;20240;-75
2021/07/30 01:24:53;;;;;;;9.43;6.22;;;;;;;13.55;64.31;99919.06;10473037;28;20286;-75
2021/07/30 01:29:56;;;;;;;8.77;5.03;;;;;;;13.47;64.54;99919.84;10474955;28;20336;-75
2021/07/30 01:35:02;;;;;;;9.27;5.80;;;;;;;13.38;64.88;99918.91;10474343;28;20240;-75
2021/07/30 01:40:09;;;;;;;9.43;6.30;;;;;;;13.41;64.85;99909.66;10454464;28;20315;-75
2021/07/30 01:45:12;;;;;;;11.13;5.97;;;;;;;13.39;65.11;99914.38;10474402;28;20282;-75
2021/07/30 01:50:15;;;;;;;11.05;5.25;;;;;;;13.35;65.16;99905.69;10477132;28;20228;-75
2021/07/30 01:55:19;;;;;;;10.18;5.72;;;;;;;13.29;65.53;99917.09;10474730;28;21110;-75
2021/07/30 02:00:22;;;;;;;10.75;5.60;;;;;;;13.31;65.64;99900.78;10474163;28;20237;-75
2021/07/30 02:05:25;;;;;;;9.00;5.60;;;;;;;13.30;65.54;99908.00;10474671;28;20327;-75
2021/07/30 02:10:29;;;;;;;13.25;6.85;;;;;;;13.25;65.68;99907.63;10473923;28;20317;-75
2021/07/30 02:15:32;;;;;;;14.95;5.95;;;;;;;13.22;66.06;99898.00;10476076;28;20264;-76
2021/07/30 02:20:35;;;;;;;10.23;6.28;;;;;;;13.21;66.03;99901.69;10473021;28;20299;-75
2021/07/30 02:25:39;;;;;;;9.88;6.22;;;;;;;13.22;65.93;99908.78;10471781;28;20221;-75
2021/07/30 02:30:42;;;;;;;13.23;6.70;;;;;;;13.21;66.07;99903.53;10470855;28;20263;-75
2021/07/30 02:35:46;;;;;;;11.82;7.20;;;;;;;13.13;66.30;99900.75;10470415;28;20334;-75
2021/07/30 02:40:50;;;;;;;9.80;6.43;;;;;;;13.13;66.25;99896.22;10471375;28;20236;-75
2021/07/30 02:45:52;;;;;;;12.77;6.53;;;;;;;13.08;66.72;99897.66;10470549;28;20315;-75
2021/07/30 02:50:55;;;;;;;16.42;6.35;;;;;;;13.04;66.80;99897.13;10473041;28;20339;-75
2021/07/30 02:55:59;;;;;;;11.68;6.63;;;;;;;13.01;66.99;99884.81;10473373;28;20319;-75
2021/07/30 03:01:02;;;;;;;11.55;6.68;;;;;;;12.99;67.34;99888.66;10471349;28;20252;-75
2021/07/30 03:06:05;;;;;;;9.15;6.15;;;;;;;13.03;67.18;99885.50;10469987;28;20235;-74
2021/07/30 03:11:09;;;;;;;14.40;6.70;;;;;;;13.12;66.85;99888.28;10469570;28;20331;-74
2021/07/30 03:16:13;;;;;;;9.43;6.38;;;;;;;12.95;67.36;99874.63;10468745;28;20244;-75
2021/07/30 03:21:16;;;;;;;8.55;5.53;;;;;;;13.05;67.25;99874.56;10470990;28;20319;-75
2021/07/30 03:26:20;;;;;;;9.32;5.70;;;;;;;12.94;67.58;99878.31;10470220;28;20239;-75
2021/07/30 03:31:23;;;;;;;10.57;6.03;;;;;;;13.07;67.22;99877.09;10468393;28;20313;-75
2021/07/30 03:36:26;;;;;;;10.50;6.32;;;;;;;13.03;67.10;99868.50;10468423;28;20610;-75
2021/07/30 03:41:30;;;;;;;8.75;5.65;;;;;;;12.96;67.45;99870.09;10469635;28;20311;-74
2021/07/30 03:46:33;;;;;;;11.77;5.45;;;;;;;13.05;67.06;99871.84;10469328;28;20851;-74
2021/07/30 03:51:36;;;;;;;10.35;5.47;;;;;;;12.98;67.34;99863.53;10476015;28;20313;-75
2021/07/30 03:56:41;;;;;;;9.32;5.50;;;;;;;12.93;67.51;99867.69;10476748;28;20367;-75
2021/07/30 04:01:47;;;;;;;9.93;6.03;;;;;;;12.98;67.48;99873.50;10477755;28;20336;-75
2021/07/30 04:06:50;;;;;;;10.30;5.68;;;;;;;12.98;67.34;99868.94;10476455;28;20232;-75
2021/07/30 04:11:54;;;;;;;11.40;5.72;;;;;;;12.99;67.21;99864.38;10476079;28;20231;-74
2021/07/30 04:16:57;;;;;;;8.93;5.88;;;;;;;13.07;67.07;99856.38;10475990;28;20233;-75
2021/07/30 04:22:00;;;;;;;7.85;5.20;;;;;;;13.11;66.90;99862.31;10475744;28;20236;-75
2021/07/30 04:27:04;;;;;;;11.10;5.78;;;;;;;13.16;66.55;99863.53;10474366;28;20262;-75
2021/07/30 04:32:09;;;;;;;9.52;5.85;;;;;;;13.24;66.40;99868.16;10475903;28;20756;-75
2021/07/30 04:37:12;;;;;;;9.93;5.88;;;;;;;13.30;66.17;99874.78;10477378;28;20848;-74
2021/07/30 04:42:16;;;;;;;8.13;5.13;;;;;;;13.45;65.67;99871.44;10474686;28;20252;-76
2021/07/30 04:47:19;;;;;;;11.32;5.45;;;;;;;13.58;65.61;99873.75;10474389;28;20224;-74
2021/07/30 04:52:21;;;;;;;13.68;5.88;;;;;;;13.68;65.22;99866.38;10476959;28;20271;-75
2021/07/30 04:57:26;;;;;;;9.30;5.68;;;;;;;13.81;64.65;99870.53;10474925;28;20652;-76
2021/07/30 05:02:28;;;;;;;8.32;5.00;;;;;;;13.99;63.91;99874.03;10475717;28;20244;-75
2021/07/30 05:07:32;;;;;;;9.32;5.65;;;;;;;14.08;63.27;99867.69;10475541;28;20240;-74
2021/07/30 05:12:36;;;;;;;9.25;5.15;;;;;;;14.35;63.50;99868.50;10475488;28;20691;-76
2021/07/30 05:17:40;;;;;;;10.95;5.60;;;;;;;14.48;62.57;99865.38;10475154;28;20228;-74
2021/07/30 05:22:43;;;;;;;10.15;5.68;;;;;;;14.55;62.65;99867.25;10457399;28;20898;-75
2021/07/30 05:27:47;;;;;;;10.50;5.63;;;;;;;14.58;62.83;99858.81;10474671;28;20301;-75
2021/07/30 05:32:50;;;;;;;9.18;5.43;;;;;;;14.69;62.75;99859.53;10473521;28;21016;-75
2021/07/30 05:37:53;;;;;;;8.00;5.20;;;;;;;14.82;62.38;99858.06;10457087;28;20285;-76
2021/07/30 05:42:57;;;;;;;9.93;5.03;;;;;;;15.08;61.94;99851.69;10475132;28;20236;-75
2021/07/30 05:48:00;;;;;;;7.68;4.82;;;;;;;15.52;60.90;99846.00;10474660;28;20224;-75
2021/07/30 05:53:03;;;;;;;8.52;5.45;;;;;;;15.69;60.70;99836.88;10473909;28;21559;-76
2021/07/30 05:58:07;;;;;;;8.85;4.70;;;;;;;15.68;60.23;99850.56;10472598;28;20271;-75
2021/07/30 06:03:10;;;;;;;6.60;4.55;;;;;;;15.87;60.28;99852.91;10473906;28;20236;-75
2021/07/30 06:08:13;;;;;;;7.05;4.38;;;;;;;15.80;59.21;99854.63;10472633;28;20355;-76
2021/07/30 06:13:18;;;;;;;11.60;5.40;;;;;;;15.84;60.15;99853.25;10466650;28;20685;-76
2021/07/30 06:18:20;;;;;;;7.55;4.75;;;;;;;15.80;59.41;99846.50;10470184;28;20352;-76
2021/07/30 06:23:23;;;;;;;5.47;4.40;;;;;;;15.96;59.70;99842.06;10476361;28;20243;-76
2021/07/30 06:28:28;;;;;;;10.70;5.25;;;;;;;16.13;58.90;99839.16;10471148;28;20228;-75
2021/07/30 06:33:30;;;;;;;6.97;4.60;;;;;;;16.30;59.00;99841.84;10470503;28;20239;-75
2021/07/30 06:38:33;;;;;;;5.53;4.60;;;;;;;16.49;58.04;99836.00;10468691;28;20296;-75
2021/07/30 06:43:37;;;;;;;9.15;4.75;;;;;;;16.41;58.33;99841.47;10470522;28;20228;-75
2021/07/30 06:48:40;;;;;;;8.70;4.75;;;;;;;16.77;57.61;99833.66;10471115;28;20239;-75
2021/07/30 06:53:43;;;;;;;11.88;4.78;;;;;;;16.88;57.10;99839.72;10470848;28;20612;-75
2021/07/30 06:58:47;;;;;;;7.10;4.28;;;;;;;16.75;57.20;99843.00;10470834;28;20240;-75
2021/07/30 07:03:50;;;;;;;6.72;4.85;;;;;;;16.84;56.77;99839.22;10469460;28;20277;-75
2021/07/30 07:08:53;;;;;;;7.55;4.35;;;;;;;17.19;56.50;99840.53;10470311;28;20231;-75
2021/07/30 07:13:58;;;;;;;7.60;4.35;;;;;;;17.19;55.64;99832.38;10469068;28;20886;-75
2021/07/30 07:19:01;;;;;;;8.88;4.85;;;;;;;17.55;55.66;99828.22;10463958;28;20236;-75
2021/07/30 07:24:05;;;;;;;10.55;4.43;;;;;;;17.88;54.03;99829.59;10448208;28;20773;-75
2021/07/30 07:29:09;;;;;;;8.40;4.53;;;;;;;18.21;53.22;99822.97;10432953;28;20674;-75
2021/07/30 07:34:14;;;;;;;6.93;3.90;;;;;;;18.42;53.21;99820.34;10461013;28;21556;-75
2021/07/30 07:39:16;;;;;;;7.75;4.40;;;;;;;18.76;51.66;99818.91;10468801;28;20263;-75
2021/07/30 07:44:21;;;;;;;7.13;4.22;;;;;;;18.64;51.36;99825.84;10460450;28;20243;-76
2021/07/30 07:49:24;;;;;;;8.77;4.38;;;;;;;18.52;52.11;99822.78;10468465;28;20231;-74
2021/07/30 07:54:27;;;;;;;9.30;4.05;;;;;;;19.04;51.51;99807.28;10468809;28;20278;-75
2021/07/30 07:59:33;;;;;;;7.05;4.10;;;;;;;18.92;51.17;99807.78;10469056;28;20247;-75
2021/07/30 08:04:36;;;;;;;8.70;4.97;;;;;;;19.23;51.17;99814.81;10467256;28;20750;-75
2021/07/30 08:09:39;;;;;;;11.93;4.53;;;;;;;18.99;52.46;99802.44;10469694;28;20240;-76
2021/07/30 08:14:43;;;;;;;7.90;4.65;;;;;;;19.31;51.42;99805.66;10442927;28;20726;-75
2021/07/30 08:19:50;;;;;;;9.77;4.22;;;;;;;19.52;49.74;99797.47;10426262;28;20244;-75
2021/07/30 08:24:53;;;;;;;5.70;3.88;;;;;;;19.15;50.23;99809.50;10426769;28;20229;-75
2021/07/30 08:29:57;;;;;;;7.45;4.20;;;;;;;19.67;49.20;99802.88;10430398;28;20244;-75
2021/07/30 08:35:01;;;;;;;8.00;4.38;;;;;;;19.60;49.61;99797.34;10429844;28;20237;-75
2021/07/30 08:40:06;;;;;;;6.30;4.25;;;;;;;20.10;48.88;99803.59;10433756;28;20728;-75
2021/07/30 08:45:10;;;;;;;6.13;3.95;;;;;;;20.32;48.27;99798.91;10432519;28;20676;-75
2021/07/30 08:50:14;;;;;;;8.73;4.60;;;;;;;20.18;47.80;99805.28;10441330;28;20757;-75
2021/07/30 08:55:17;;;;;;;8.00;4.00;;;;;;;20.14;47.89;99782.19;10452576;28;20265;-75
2021/07/30 09:00:23;;;;;;;7.47;3.67;;;;;;;20.29;47.30;99793.78;10433036;28;20725;-75
2021/07/30 09:05:31;;;;;;;4.50;3.65;;;;;;;21.20;46.58;99788.06;10413811;28;20276;-75
2021/07/30 09:10:36;;;;;;;7.85;3.40;;;;;;;20.99;44.99;99791.78;10432419;28;20237;-75
2021/07/30 09:15:40;;;;;;;6.07;3.80;;;;;;;21.06;46.38;99793.69;10440396;28;20231;-75
2021/07/30 09:20:43;;;;;;;6.88;3.92;;;;;;;21.05;46.37;99783.84;10455932;28;20239;-75
2021/07/30 09:25:46;;;;;;;7.80;3.60;;;;;;;21.28;45.10;99762.41;10450915;28;20243;-75
2021/07/30 09:31:08;;;;;;;5.30;3.22;;;;;;;21.12;44.70;99780.06;10432798;28;20233;-75
2021/07/30 09:36:11;;;;;;;9.18;3.85;;;;;;;21.33;45.82;99765.38;10433476;28;20241;-75
2021/07/30 09:41:14;;;;;;;8.63;3.60;;;;;;;21.41;44.21;99747.94;10431378;28;20375;-75
2021/07/30 09:46:18;;;;;;;6.00;3.92;;;;;;;22.30;44.67;99754.72;10431704;28;20229;-75
2021/07/30 09:51:21;;;;;;;6.72;3.05;;;;;;;21.30;43.74;99749.41;10430608;28;20546;-75
2021/07/30 09:56:25;;;;;;;4.93;3.05;;;;;;;21.77;42.75;99733.81;10430548;28;20783;-76
2021/07/30 10:01:31;;;;;;;3.88;2.80;;;;;;;22.25;42.56;99738.13;10431000;28;20333;-74
2021/07/30 10:06:34;;;;;;;4.93;3.28;;;;;;;22.67;42.00;99724.88;10429806;28;20260;-76
2021/07/30 10:11:39;;;;;;;4.60;2.85;;;;;;;23.73;40.48;99715.81;10445236;28;21546;-76
2021/07/30 10:16:58;;;;;;;4.63;2.65;;;;;;;23.64;40.03;99711.66;10429849;28;20232;-74
2021/07/30 10:22:03;;;;;;;4.50;2.75;;;;;;;23.15;39.12;99719.72;10432097;28;20233;-76
2021/07/30 10:27:07;;;;;;;3.67;2.70;;;;;;;22.64;39.87;99701.50;10430471;28;20312;-75
2021/07/30 10:32:12;;;;;;;3.05;2.85;;;;;;;22.89;40.04;99704.28;10468176;28;20760;-75
2021/07/30 10:37:36;;;;;;;5.13;2.70;;;;;;;22.69;40.62;99712.66;10471497;28;20224;-75
2021/07/30 10:42:59;;;;;;;3.13;2.83;;;;;;;23.19;39.46;99688.06;10467951;28;20243;-76
2021/07/30 10:48:38;;;;;;;5.05;2.72;;;;;;;22.77;40.16;99685.00;10471795;28;20234;-75
2021/07/30 10:53:49;;;;;;;4.07;2.80;;;;;;;22.86;40.34;99671.06;10471964;28;20293;-76
2021/07/30 10:59:05;;;;;;;2.95;2.67;;;;;;;23.21;40.45;99671.44;10470442;28;20240;-76
2021/07/30 11:04:09;;;;;;;3.92;2.70;;;;;;;23.81;38.99;99663.44;10470875;28;20235;-75
2021/07/30 11:09:16;;;;;;;3.20;2.70;;;;;;;24.37;39.02;99660.63;10470061;28;20240;-76
2021/07/30 11:14:21;;;;;;;4.95;2.90;;;;;;;24.48;37.88;99657.13;10471818;28;20607;-75
2021/07/30 11:19:31;;;;;;;4.80;3.08;;;;;;;25.17;37.39;99652.03;10471329;28;20251;-76
2021/07/30 11:24:38;;;;;;;4.50;2.88;;;;;;;25.01;36.50;99653.53;10469210;28;20220;-76
2021/07/30 11:29:45;;;;;;;4.75;2.42;;;;;;;24.06;37.85;99671.56;10471991;28;20228;-76
2021/07/30 11:34:51;;;;;;;3.83;2.72;;;;;;;24.24;38.77;99646.00;10468633;28;20236;-75
2021/07/30 11:39:54;;;;;;;6.50;3.10;;;;;;;25.19;37.23;99641.63;10470569;28;20239;-76
2021/07/30 11:45:00;;;;;;;3.90;2.50;;;;;;;25.14;36.50;99641.50;10449275;28;21531;-76
2021/07/30 11:50:07;;;;;;;2.90;2.53;;;;;;;25.23;37.35;99640.06;10443115;28;21191;-76
2021/07/30 11:55:16;;;;;;;4.35;2.67;;;;;;;25.75;35.43;99633.81;10428028;28;20236;-76
2021/07/30 12:00:24;;;;;;;4.00;2.50;;;;;;;25.29;35.93;99633.63;10427565;28;20245;-76
2021/07/30 12:05:32;;;;;;;3.90;2.70;;;;;;;24.24;37.84;99628.72;10458570;28;20251;-76
2021/07/30 12:10:36;;;;;;;4.25;2.63;;;;;;;25.65;34.91;99637.22;10459605;28;20259;-76
2021/07/30 12:15:40;;;;;;;4.28;3.00;;;;;;;23.94;38.43;99613.06;10454659;28;20228;-75
2021/07/30 12:20:45;;;;;;;3.97;2.30;;;;;;;24.20;38.02;99622.03;10452582;28;20237;-76
2021/07/30 12:25:49;;;;;;;3.03;2.42;;;;;;;25.21;37.01;99617.50;10453911;28;20254;-75
2021/07/30 12:30:53;;;;;;;3.75;2.60;;;;;;;25.01;36.93;99616.97;10436428;28;20225;-75
2021/07/30 12:36:06;;;;;;;6.38;2.88;;;;;;;24.70;36.85;99610.75;10440271;28;20241;-75
2021/07/30 12:41:15;;;;;;;3.55;2.80;;;;;;;25.41;36.64;99592.38;10438258;28;20387;-75
2021/07/30 12:46:35;;;;;;;3.08;2.33;;;;;;;25.36;36.52;99587.59;10433722;28;20259;-76
2021/07/30 12:51:42;;;;;;;3.75;2.80;;;;;;;25.45;36.70;99596.31;10433138;28;20236;-75
2021/07/30 12:57:01;;;;;;;6.07;2.60;;;;;;;23.92;39.31;99582.31;10433883;28;20237;-75
2021/07/30 13:02:03;;;;;;;3.50;2.47;;;;;;;25.09;38.11;99580.94;10433187;28;20664;-75
2021/07/30 13:07:09;;;;;;;3.28;2.53;;;;;;;24.48;38.59;99572.84;10433932;28;20240;-75
2021/07/30 13:12:12;;;;;;;9.27;3.50;;;;;;;25.81;37.39;99566.88;10431999;28;20814;-75
2021/07/30 13:17:16;;;;;;;5.88;2.95;;;;;;;25.16;36.74;99552.28;10434767;28;20244;-75
2021/07/30 13:22:20;;;;;;;3.97;3.22;;;;;;;25.09;37.01;99547.97;10431193;28;20773;-75
2021/07/30 13:27:23;;;;;;;5.30;2.60;;;;;;;24.48;38.15;99544.56;10431576;28;20256;-75
2021/07/30 13:32:26;;;;;;;4.80;2.70;;;;;;;25.36;37.15;99532.63;10431823;28;20233;-75
2021/07/30 13:37:30;;;;;;;4.57;2.55;;;;;;;26.89;34.38;99522.81;10431694;28;20232;-75
2021/07/30 13:42:34;;;;;;;7.22;2.97;;;;;;;25.95;35.93;99531.66;10431688;28;20233;-76
2021/07/30 13:47:38;;;;;;;7.82;3.08;;;;;;;25.44;38.21;99520.44;10433286;28;20385;-76
2021/07/30 13:52:42;;;;;;;4.70;2.92;;;;;;;24.97;38.31;99515.00;10434708;28;21471;-76
2021/07/30 13:57:45;;;;;;;3.80;2.65;;;;;;;25.65;36.83;99499.72;10431849;28;20652;-76
2021/07/30 14:02:48;;;;;;;4.30;2.70;;;;;;;25.38;36.25;99510.41;10431382;28;20232;-75
2021/07/30 14:07:52;;;;;;;5.22;2.50;;;;;;;26.21;36.10;99488.91;10451557;28;20265;-78
2021/07/30 14:12:55;;;;;;;3.72;2.70;;;;;;;27.28;35.36;99487.78;10465201;28;20235;-76
2021/07/30 14:17:58;;;;;;;3.28;2.72;;;;;;;25.74;36.47;99491.91;10474879;28;20235;-76
2021/07/30 14:23:04;;;;;;;3.40;2.88;;;;;;;24.75;38.70;99499.13;10471629;28;20717;-75
2021/07/30 14:28:07;;;;;;;6.88;3.47;;;;;;;25.14;38.54;99480.22;10476273;28;20240;-76
2021/07/30 14:33:10;;;;;;;4.05;2.97;;;;;;;25.66;37.78;99467.56;10471103;28;20244;-76
2021/07/30 14:38:14;;;;;;;3.55;2.83;;;;;;;26.02;37.78;99466.28;10470543;28;20239;-76
2021/07/30 14:43:17;;;;;;;4.28;2.83;;;;;;;26.32;36.61;99459.66;10474762;28;20257;-76
2021/07/30 14:48:19;;;;;;;5.10;2.88;;;;;;;24.45;39.97;99466.28;10474386;28;20231;-76
2021/07/30 14:53:24;;;;;;;5.38;3.13;;;;;;;25.82;37.50;99453.00;10474607;28;20270;-76
2021/07/30 14:58:27;;;;;;;4.68;3.10;;;;;;;25.85;36.65;99455.25;10472846;28;20278;-76
2021/07/30 15:03:30;;;;;;;4.10;3.45;;;;;;;25.90;37.49;99451.78;10473504;28;20240;-76
2021/07/30 15:08:34;;;;;;;5.78;3.28;;;;;;;26.54;36.44;99445.97;10474027;28;20985;-76
2021/07/30 15:13:37;;;;;;;5.10;2.90;;;;;;;27.52;34.28;99437.94;10472164;28;20910;-76
2021/07/30 15:18:40;;;;;;;3.40;3.08;;;;;;;27.15;34.87;99416.50;10468750;28;20228;-76
2021/07/30 15:23:45;;;;;;;4.68;3.22;;;;;;;27.57;34.03;99426.97;10464260;28;20236;-76
2021/07/30 15:28:50;;;;;;;3.45;3.13;;;;;;;28.03;33.49;99417.22;10470359;28;20292;-75
2021/07/30 15:33:54;;;;;;;8.82;3.20;;;;;;;27.60;35.46;99420.91;10459217;28;20237;-76
2021/07/30 15:38:58;;;;;;;7.28;3.08;;;;;;;26.90;35.18;99406.00;10447648;28;20292;-76
2021/07/30 15:44:02;;;;;;;5.70;3.20;;;;;;;26.43;37.00;99418.28;10448841;28;20870;-75
2021/07/30 15:49:05;;;;;;;3.40;2.83;;;;;;;25.82;36.71;99403.50;10431179;28;20229;-76
2021/07/30 15:54:09;;;;;;;3.80;3.22;;;;;;;24.94;38.95;99398.19;10436946;28;20369;-75
2021/07/30 15:59:12;;;;;;;5.00;3.05;;;;;;;24.07;39.97;99398.13;10458225;28;20239;-77
2021/07/30 16:04:15;;;;;;;3.40;3.10;;;;;;;23.93;40.34;99405.72;10458903;28;20228;-75
2021/07/30 16:09:19;;;;;;;3.80;3.40;;;;;;;24.44;38.95;99398.75;10472079;28;20232;-77
2021/07/30 16:14:22;;;;;;;4.85;3.28;;;;;;;24.01;39.43;99390.84;10451900;28;20236;-77
2021/07/30 16:19:25;;;;;;;3.58;2.90;;;;;;;24.68;38.94;99377.63;10473082;28;20240;-76
2021/07/30 16:24:29;;;;;;;5.13;3.28;;;;;;;25.47;37.58;99376.16;10470240;28;20273;-76
2021/07/30 16:29:32;;;;;;;4.63;2.80;;;;;;;25.03;38.77;99368.47;10470763;28;20748;-76
2021/07/30 16:34:35;;;;;;;6.30;3.50;;;;;;;24.59;39.75;99367.25;10468713;28;20319;-76
2021/07/30 16:39:39;;;;;;;6.88;3.00;;;;;;;23.86;40.54;99364.72;10455559;28;20388;-76
2021/07/30 16:44:44;;;;;;;6.90;2.92;;;;;;;23.83;40.63;99356.09;10455457;28;20306;-76
2021/07/30 16:49:46;;;;;;;9.75;4.15;;;;;;;24.32;39.63;99349.31;10457995;28;20322;-76
2021/07/30 16:54:51;;;;;;;3.60;3.25;;;;;;;24.13;40.68;99350.53;10466320;28;20232;-76
2021/07/30 16:59:53;;;;;;;4.22;3.20;;;;;;;23.81;40.00;99353.63;10474622;28;20252;-76
2021/07/30 17:04:56;;;;;;;3.65;2.95;;;;;;;23.81;40.44;99355.53;10474083;28;20278;-76
2021/07/30 17:10:01;;;;;;;4.47;3.17;;;;;;;24.03;40.26;99342.91;10479727;28;20867;-76
2021/07/30 17:15:04;;;;;;;5.45;3.30;;;;;;;26.60;36.29;99332.03;10474148;28;20239;-76
2021/07/30 17:20:09;;;;;;;5.88;3.58;;;;;;;26.21;35.43;99330.13;10475529;28;20240;-76
2021/07/30 17:25:14;;;;;;;4.68;3.20;;;;;;;23.84;39.40;99333.13;10476223;28;20609;-76
2021/07/30 17:30:17;;;;;;;4.38;3.28;;;;;;;23.35;40.37;99329.66;10476980;28;20247;-76
2021/07/30 17:35:20;;;;;;;5.30;3.35;;;;;;;23.71;40.63;99322.34;10475621;28;20282;-76
2021/07/30 17:40:24;;;;;;;4.88;3.28;;;;;;;23.72;40.89;99322.09;10474714;28;20309;-76
2021/07/30 17:45:28;;;;;;;5.30;3.20;;;;;;;23.64;40.99;99325.19;10474449;28;20228;-76
2021/07/30 17:50:30;;;;;;;8.45;3.30;;;;;;;23.40;41.54;99316.09;10476223;28;20719;-76
2021/07/30 17:55:34;;;;;;;6.18;3.47;;;;;;;23.09;41.93;99311.66;10475503;28;20247;-76
2021/07/30 18:00:37;;;;;;;4.15;3.15;;;;;;;23.11;41.73;99313.13;10470735;28;20980;-76
2021/07/30 18:05:41;;;;;;;3.90;3.45;;;;;;;22.98;42.14;99318.75;10453710;28;20225;-76
2021/07/30 18:10:45;;;;;;;7.70;3.58;;;;;;;23.07;42.17;99309.16;10449789;28;20224;-75
2021/07/30 18:15:48;;;;;;;6.10;3.28;;;;;;;23.09;42.36;99312.53;10450299;28;20229;-76
2021/07/30 18:20:51;;;;;;;7.22;3.40;;;;;;;22.85;43.31;99317.06;10450577;28;21456;-75
2021/07/30 18:25:55;;;;;;;5.88;3.45;;;;;;;22.71;43.41;99315.56;10449968;28;20229;-76
2021/07/30 18:30:58;;;;;;;5.00;3.45;;;;;;;22.71;43.65;99318.28;10456880;28;20267;-76
2021/07/30 18:36:01;;;;;;;4.97;3.72;;;;;;;22.93;43.25;99310.44;10439817;28;20233;-76
2021/07/30 18:41:07;;;;;;;5.18;3.53;;;;;;;22.73;43.54;99311.50;10467544;28;20251;-75
2021/07/30 18:46:11;;;;;;;5.13;3.80;;;;;;;22.17;44.62;99317.19;10470923;28;21470;-75
2021/07/30 18:51:15;;;;;;;5.70;3.42;;;;;;;22.14;45.09;99315.75;10471965;28;20808;-76
2021/07/30 18:56:20;;;;;;;6.05;3.53;;;;;;;21.95;45.21;99317.59;10470875;28;21616;-75
2021/07/30 19:01:23;;;;;;;4.65;3.42;;;;;;;22.05;45.68;99317.06;10470083;28;21566;-75
2021/07/30 19:06:26;;;;;;;5.90;3.55;;;;;;;21.97;45.84;99311.91;10466268;28;20255;-76
2021/07/30 19:11:31;;;;;;;5.95;3.67;;;;;;;21.80;46.75;99317.09;10469625;28;20321;-76
2021/07/30 19:16:34;;;;;;;5.28;3.78;;;;;;;21.54;46.85;99318.16;10471117;28;20224;-75
2021/07/30 19:21:36;;;;;;;7.50;4.03;;;;;;;21.26;48.08;99316.66;10468952;28;20333;-76
2021/07/30 19:26:41;;;;;;;4.78;3.58;;;;;;;21.12;47.92;99320.53;10469443;28;20236;-76
2021/07/30 19:31:43;;;;;;;5.38;3.63;;;;;;;21.15;47.71;99318.19;10449694;28;21805;-76
2021/07/30 19:36:47;;;;;;;7.68;3.78;;;;;;;21.08;48.47;99320.13;10447671;28;20235;-76
2021/07/30 19:41:51;;;;;;;5.35;3.38;;;;;;;21.00;48.67;99315.72;10450414;28;20742;-76
2021/07/30 19:46:54;;;;;;;6.97;4.20;;;;;;;20.79;48.92;99318.78;10458150;28;20224;-74
2021/07/30 19:51:57;;;;;;;4.43;3.60;;;;;;;20.83;48.66;99332.81;10444327;28;20228;-76
2021/07/30 19:57:03;;;;;;;4.85;3.70;;;;;;;20.76;49.13;99332.84;10452980;28;20916;-76
2021/07/30 20:02:06;;;;;;;6.05;3.58;;;;;;;20.68;49.45;99346.72;10468946;28;20228;-75
2021/07/30 20:07:09;;;;;;;6.70;4.10;;;;;;;20.66;49.50;99352.41;10468901;28;20236;-75
2021/07/30 20:12:14;;;;;;;4.60;3.78;;;;;;;20.58;49.63;99358.09;10471153;28;20804;-75
2021/07/30 20:17:16;;;;;;;5.35;3.78;;;;;;;20.63;49.52;99355.56;10469346;28;20941;-75
2021/07/30 20:22:19;;;;;;;5.28;2.42;;;;;;;19.34;51.06;99445.88;10459693;28;20275;-75
2021/07/30 20:27:23;;;;;;;3.65;2.05;;;;;;;18.28;53.93;99437.94;10436532;28;20279;-75
2021/07/30 20:32:26;;;;;;;5.70;1.88;;;;;;;17.28;60.24;99441.50;10457157;28;20244;-76
2021/07/30 20:37:29;;;;;;;5.03;2.05;;;;;;;15.54;69.96;99472.34;10477014;28;20231;-75
2021/07/30 20:42:34;;;;;;;3.83;2.25;;;;;;;15.09;74.60;99463.94;10474879;28;20239;-75
2021/07/30 20:47:37;;;;;;;3.10;2.50;;;;;;;14.54;79.07;99472.91;10476016;28;20232;-76
2021/07/30 20:52:40;;;;;;;4.97;2.60;;;;;;;14.64;78.57;99468.13;10474852;28;20658;-76
2021/07/30 20:57:44;;;;;;;4.25;3.05;;;;;;;14.91;77.73;99466.84;10458002;28;20724;-75
2021/07/30 21:02:47;;;;;;;4.50;3.08;;;;;;;15.09;77.27;99455.81;10477294;28;20286;-75
2021/07/30 21:07:50;;;;;;;3.92;3.00;;;;;;;15.31;77.52;99462.28;10475594;28;20232;-76
2021/07/30 21:12:54;;;;;;;4.35;3.38;;;;;;;15.39;76.69;99458.75;10474489;28;20724;-75
2021/07/30 21:17:57;;;;;;;4.20;3.30;;;;;;;15.44;76.25;99469.84;10476372;28;20228;-76
2021/07/30 21:23:00;;;;;;;6.88;3.92;;;;;;;15.61;75.10;99486.84;10458075;28;20232;-76
2021/07/30 21:28:05;;;;;;;5.95;3.25;;;;;;;15.50;74.93;99503.50;10473378;28;20243;-76
2021/07/30 21:33:09;;;;;;;3.85;3.20;;;;;;;15.51;75.41;99505.16;10474569;28;20263;-75
2021/07/30 21:38:15;;;;;;;3.00;2.78;;;;;;;15.63;74.43;99496.47;10456877;28;20243;-77
2021/07/30 21:43:19;;;;;;;3.33;3.03;;;;;;;15.78;72.94;99493.84;10473561;28;20347;-76
2021/07/30 21:48:22;;;;;;;5.07;3.10;;;;;;;16.08;73.77;99492.09;10474720;28;20849;-76
2021/07/30 21:53:25;;;;;;;4.70;3.20;;;;;;;16.20;74.13;99481.66;10475999;28;20229;-75
2021/07/30 21:58:30;;;;;;;3.83;3.17;;;;;;;16.18;72.98;99488.28;10473829;28;20281;-76
2021/07/30 22:03:33;;;;;;;4.70;3.38;;;;;;;16.06;72.90;99496.84;10474877;28;20244;-76
2021/07/30 22:08:36;;;;;;;3.80;2.92;;;;;;;15.98;72.78;99499.59;10473096;28;20243;-76
2021/07/30 22:13:40;;;;;;;6.10;3.35;;;;;;;15.88;72.91;99499.03;10474314;28;20236;-76
2021/07/30 22:18:43;;;;;;;4.35;3.17;;;;;;;16.08;72.41;99510.22;10474870;28;21420;-76
2021/07/30 22:23:45;;;;;;;4.10;3.30;;;;;;;15.98;72.52;99509.59;10472655;28;20309;-76
2021/07/30 22:28:50;;;;;;;4.70;3.42;;;;;;;16.02;72.77;99497.41;10471740;28;20766;-76
2021/07/30 22:33:52;;;;;;;4.78;4.05;;;;;;;16.10;72.75;99495.47;10473775;28;21380;-76
2021/07/30 22:38:55;;;;;;;5.72;3.38;;;;;;;16.00;73.10;99494.84;10471853;28;20244;-76
2021/07/30 22:44:00;;;;;;;5.60;3.58;;;;;;;16.11;72.86;99486.28;10473362;28;20243;-75
2021/07/30 22:49:03;;;;;;;4.53;3.80;;;;;;;16.20;72.66;99487.06;10472988;28;20269;-76
2021/07/30 22:54:05;;;;;;;8.30;3.53;;;;;;;15.99;73.19;99481.47;10471369;28;20236;-75
2021/07/30 22:59:09;;;;;;;4.63;3.40;;;;;;;15.96;73.01;99482.69;10473365;28;20651;-75
2021/07/30 23:04:12;;;;;;;4.82;2.90;;;;;;;15.92;72.96;99482.22;10474862;28;20243;-75
2021/07/30 23:09:15;;;;;;;5.82;4.05;;;;;;;15.95;72.99;99482.88;10472303;28;20247;-75
2021/07/30 23:14:19;;;;;;;7.90;3.80;;;;;;;15.80;73.12;99472.84;10469953;28;20240;-76
2021/07/30 23:19:24;;;;;;;6.30;4.07;;;;;;;15.68;73.80;99485.09;10469391;28;20233;-76
2021/07/30 23:24:27;;;;;;;7.60;4.03;;;;;;;15.61;73.97;99471.44;10473168;28;20240;-76
2021/07/30 23:29:31;;;;;;;9.45;4.47;;;;;;;15.61;74.14;99467.91;10472740;28;20378;-75
2021/07/30 23:34:34;;;;;;;5.57;3.83;;;;;;;15.47;74.43;99466.81;10469292;28;20255;-76